sensor_id;sensor_type;location;lat;lon;timestamp;pressure;altitude;pressure_sealevel;temperature;humidity
57234;BME280;43090;52.604;13.318;2022-10-19T00:01:22;102023.78;;;11.07;100.00
57234;BME280;43090;52.604;13.318;2022-10-19T00:03:52;102016.84;;;11.03;100.00
57234;BME280;43090;52.604;13.318;2022-10-19T00:06:25;102046.88;;;11.43;100.00
57234;BME280;43090;52.604;13.318;2022-10-19T00:08:53;102045.53;;;11.52;99.51
57234;BME280;43090;52.604;13.318;2022-10-19T00:11:21;102015.31;;;11.48;99.34
57234;BME280;43090;52.604;13.318;2022-10-19T00:13:49;101993.53;;;11.05;100.00
57234;BME280;43090;52.604;13.318;2022-10-19T00:16:16;101998.41;;;11.14;98.73
57234;BME280;43090;52.604;13.318;2022-10-19T00:18:43;102045.44;;;11.53;99.10
57234;BME280;43090;52.604;13.318;2022-10-19T00:21:12;102023.22;;;11.51;98.17
57234;BME280;43090;52.604;13.318;2022-10-19T00:23:40;102051.81;;;11.84;97.02
57234;BME280;43090;52.604;13.318;2022-10-19T00:26:10;102032.09;;;11.36;99.56
57234;BME280;43090;52.604;13.318;2022-10-19T00:28:37;102022.84;;;11.41;98.43
57234;BME280;43090;52.604;13.318;2022-10-19T00:31:04;102045.88;;;11.61;97.92
57234;BME280;43090;52.604;13.318;2022-10-19T00:33:32;102048.31;;;11.50;98.42
57234;BME280;43090;52.604;13.318;2022-10-19T00:35:58;102030.22;;;11.20;99.54
57234;BME280;43090;52.604;13.318;2022-10-19T00:38:29;102012.88;;;11.10;98.63
57234;BME280;43090;52.604;13.318;2022-10-19T00:40:56;102044.81;;;11.14;99.60
57234;BME280;43090;52.604;13.318;2022-10-19T00:43:25;102055.84;;;11.08;99.35
57234;BME280;43090;52.604;13.318;2022-10-19T00:45:55;102040.84;;;11.22;98.56
57234;BME280;43090;52.604;13.318;2022-10-19T00:48:25;102060.56;;;11.38;96.49
57234;BME280;43090;52.604;13.318;2022-10-19T00:50:55;102007.25;;;10.98;95.68
57234;BME280;43090;52.604;13.318;2022-10-19T00:53:26;102021.50;;;10.99;96.70
57234;BME280;43090;52.604;13.318;2022-10-19T00:55:54;102063.31;;;11.19;97.04
57234;BME280;43090;52.604;13.318;2022-10-19T00:58:22;102040.31;;;11.15;98.40
57234;BME280;43090;52.604;13.318;2022-10-19T01:00:49;102065.06;;;11.20;97.64
57234;BME280;43090;52.604;13.318;2022-10-19T01:03:16;102059.56;;;11.57;97.41
57234;BME280;43090;52.604;13.318;2022-10-19T01:05:46;102029.94;;;11.09;97.67
57234;BME280;43090;52.604;13.318;2022-10-19T01:08:12;102041.16;;;11.33;98.32
57234;BME280;43090;52.604;13.318;2022-10-19T01:10:53;102044.16;;;11.27;94.66
57234;BME280;43090;52.604;13.318;2022-10-19T01:13:47;102043.38;;;11.25;97.42
57234;BME280;43090;52.604;13.318;2022-10-19T01:16:31;101990.41;;;11.12;96.76
57234;BME280;43090;52.604;13.318;2022-10-19T01:27:52;102028.41;;;11.54;94.79
57234;BME280;43090;52.604;13.318;2022-10-19T01:30:41;102043.75;;;11.34;93.20
57234;BME280;43090;52.604;13.318;2022-10-19T01:33:30;102030.25;;;11.36;94.04
57234;BME280;43090;52.604;13.318;2022-10-19T01:36:05;102036.34;;;11.40;92.18
57234;BME280;43090;52.604;13.318;2022-10-19T01:38:56;101999.75;;;11.05;91.61
57234;BME280;43090;52.604;13.318;2022-10-19T01:44:21;102035.50;;;11.55;89.99
57234;BME280;43090;52.604;13.318;2022-10-19T01:46:55;102045.97;;;11.60;89.12
57234;BME280;43090;52.604;13.318;2022-10-19T01:49:34;102021.31;;;11.53;90.51
57234;BME280;43090;52.604;13.318;2022-10-19T01:52:08;102024.22;;;11.32;91.82
57234;BME280;43090;52.604;13.318;2022-10-19T01:54:39;102027.25;;;11.09;93.29
57234;BME280;43090;52.604;13.318;2022-10-19T01:57:10;102013.53;;;11.31;91.60
57234;BME280;43090;52.604;13.318;2022-10-19T01:59:38;101974.00;;;10.67;93.06
57234;BME280;43090;52.604;13.318;2022-10-19T02:02:08;101981.22;;;11.34;92.49
57234;BME280;43090;52.604;13.318;2022-10-19T02:04:36;101982.09;;;11.34;92.69
57234;BME280;43090;52.604;13.318;2022-10-19T02:07:04;101978.00;;;11.27;94.42
57234;BME280;43090;52.604;13.318;2022-10-19T02:09:32;101986.00;;;11.45;93.84
57234;BME280;43090;52.604;13.318;2022-10-19T02:12:02;101977.44;;;11.38;93.57
57234;BME280;43090;52.604;13.318;2022-10-19T02:14:32;101994.25;;;11.24;93.48
57234;BME280;43090;52.604;13.318;2022-10-19T02:19:59;101991.03;;;11.17;92.71
57234;BME280;43090;52.604;13.318;2022-10-19T02:22:26;102016.41;;;11.28;93.79
57234;BME280;43090;52.604;13.318;2022-10-19T02:24:53;101979.09;;;10.90;91.99
57234;BME280;43090;52.604;13.318;2022-10-19T02:27:20;102008.19;;;10.97;93.11
57234;BME280;43090;52.604;13.318;2022-10-19T02:29:46;102033.69;;;11.22;92.50
57234;BME280;43090;52.604;13.318;2022-10-19T02:32:13;101991.19;;;10.81;94.87
57234;BME280;43090;52.604;13.318;2022-10-19T02:34:40;102001.06;;;11.14;95.08
57234;BME280;43090;52.604;13.318;2022-10-19T02:37:07;101984.63;;;11.20;92.47
57234;BME280;43090;52.604;13.318;2022-10-19T02:39:34;102012.91;;;11.43;92.02
57234;BME280;43090;52.604;13.318;2022-10-19T02:42:13;102008.66;;;11.39;92.42
57234;BME280;43090;52.604;13.318;2022-10-19T02:44:49;101988.53;;;11.14;92.01
57234;BME280;43090;52.604;13.318;2022-10-19T02:47:20;102010.50;;;11.21;93.65
57234;BME280;43090;52.604;13.318;2022-10-19T02:49:50;102015.19;;;11.33;93.60
57234;BME280;43090;52.604;13.318;2022-10-19T02:52:17;102014.56;;;10.95;94.22
57234;BME280;43090;52.604;13.318;2022-10-19T02:54:44;102019.94;;;10.95;94.99
57234;BME280;43090;52.604;13.318;2022-10-19T02:57:18;101981.97;;;10.69;92.85
57234;BME280;43090;52.604;13.318;2022-10-19T02:59:45;102012.59;;;10.98;93.14
57234;BME280;43090;52.604;13.318;2022-10-19T03:02:13;101998.56;;;10.93;92.34
57234;BME280;43090;52.604;13.318;2022-10-19T03:04:40;102004.16;;;11.06;92.19
57234;BME280;43090;52.604;13.318;2022-10-19T03:07:08;102000.09;;;11.15;92.19
57234;BME280;43090;52.604;13.318;2022-10-19T03:09:36;102000.44;;;10.91;93.13
57234;BME280;43090;52.604;13.318;2022-10-19T03:12:05;101986.44;;;10.86;91.61
57234;BME280;43090;52.604;13.318;2022-10-19T03:14:31;101988.25;;;10.86;91.23
57234;BME280;43090;52.604;13.318;2022-10-19T03:16:58;102032.94;;;11.03;92.17
57234;BME280;43090;52.604;13.318;2022-10-19T03:19:45;102022.69;;;10.93;91.39
57234;BME280;43090;52.604;13.318;2022-10-19T03:22:12;101988.19;;;10.70;92.01
57234;BME280;43090;52.604;13.318;2022-10-19T03:24:40;101987.97;;;10.74;92.77
57234;BME280;43090;52.604;13.318;2022-10-19T03:27:06;101995.28;;;10.71;92.58
57234;BME280;43090;52.604;13.318;2022-10-19T03:33:24;102041.53;;;10.92;94.06
57234;BME280;43090;52.604;13.318;2022-10-19T03:36:14;102002.50;;;10.86;93.03
57234;BME280;43090;52.604;13.318;2022-10-19T03:38:42;101986.06;;;10.76;90.95
57234;BME280;43090;52.604;13.318;2022-10-19T03:41:21;101985.97;;;10.78;91.42
57234;BME280;43090;52.604;13.318;2022-10-19T03:43:48;102046.97;;;11.08;89.20
57234;BME280;43090;52.604;13.318;2022-10-19T03:49:18;101999.38;;;10.78;92.10
57234;BME280;43090;52.604;13.318;2022-10-19T03:51:45;102036.94;;;11.11;90.59
57234;BME280;43090;52.604;13.318;2022-10-19T03:54:14;102018.91;;;10.80;92.07
57234;BME280;43090;52.604;13.318;2022-10-19T03:56:41;102002.94;;;10.78;91.48
57234;BME280;43090;52.604;13.318;2022-10-19T03:59:11;102028.47;;;11.37;90.27
57234;BME280;43090;52.604;13.318;2022-10-19T04:01:43;102017.66;;;11.05;90.14
57234;BME280;43090;52.604;13.318;2022-10-19T04:04:14;102042.44;;;11.08;91.45
57234;BME280;43090;52.604;13.318;2022-10-19T04:06:44;102044.34;;;11.24;91.49
57234;BME280;43090;52.604;13.318;2022-10-19T04:09:14;102033.56;;;10.90;91.48
57234;BME280;43090;52.604;13.318;2022-10-19T04:11:49;102045.28;;;11.23;92.38
57234;BME280;43090;52.604;13.318;2022-10-19T04:14:18;102018.13;;;10.95;91.93
57234;BME280;43090;52.604;13.318;2022-10-19T04:16:58;102015.50;;;11.11;90.94
57234;BME280;43090;52.604;13.318;2022-10-19T04:19:25;102029.13;;;11.07;90.12
57234;BME280;43090;52.604;13.318;2022-10-19T04:21:51;102071.09;;;10.90;93.06
57234;BME280;43090;52.604;13.318;2022-10-19T04:24:18;102074.31;;;11.14;92.49
57234;BME280;43090;52.604;13.318;2022-10-19T04:26:50;102069.56;;;11.20;91.99
57234;BME280;43090;52.604;13.318;2022-10-19T04:29:18;102069.00;;;11.30;91.99
57234;BME280;43090;52.604;13.318;2022-10-19T04:31:50;102031.66;;;10.92;91.54
57234;BME280;43090;52.604;13.318;2022-10-19T04:34:17;102043.81;;;10.99;93.78
57234;BME280;43090;52.604;13.318;2022-10-19T04:36:46;102051.69;;;11.03;94.32
57234;BME280;43090;52.604;13.318;2022-10-19T04:39:14;102052.06;;;10.95;93.93
57234;BME280;43090;52.604;13.318;2022-10-19T04:41:55;102091.03;;;11.20;92.77
57234;BME280;43090;52.604;13.318;2022-10-19T04:44:22;102040.50;;;10.94;92.89
57234;BME280;43090;52.604;13.318;2022-10-19T04:50:35;102093.16;;;10.95;92.98
57234;BME280;43090;52.604;13.318;2022-10-19T04:53:02;102113.31;;;11.20;91.92
57234;BME280;43090;52.604;13.318;2022-10-19T04:55:28;102054.50;;;10.64;91.85
57234;BME280;43090;52.604;13.318;2022-10-19T04:57:55;102066.75;;;10.88;91.79
57234;BME280;43090;52.604;13.318;2022-10-19T05:00:25;102053.56;;;10.48;92.07
57234;BME280;43090;52.604;13.318;2022-10-19T05:02:53;102076.59;;;10.70;93.65
57234;BME280;43090;52.604;13.318;2022-10-19T05:05:22;102106.88;;;10.89;95.69
57234;BME280;43090;52.604;13.318;2022-10-19T05:07:50;102052.75;;;10.46;96.95
57234;BME280;43090;52.604;13.318;2022-10-19T05:10:19;102107.09;;;10.84;96.64
57234;BME280;43090;52.604;13.318;2022-10-19T05:12:46;102059.78;;;10.48;91.54
57234;BME280;43090;52.604;13.318;2022-10-19T05:15:13;102114.88;;;10.72;90.88
57234;BME280;43090;52.604;13.318;2022-10-19T05:42:05;102074.47;;;10.21;95.89
57234;BME280;43090;52.604;13.318;2022-10-19T05:44:32;102061.75;;;10.07;98.57
57234;BME280;43090;52.604;13.318;2022-10-19T05:46:59;102111.31;;;10.71;97.00
57234;BME280;43090;52.604;13.318;2022-10-19T05:49:29;102091.63;;;10.36;97.23
57234;BME280;43090;52.604;13.318;2022-10-19T05:51:59;102102.31;;;10.55;97.22
57234;BME280;43090;52.604;13.318;2022-10-19T05:54:57;102090.63;;;10.38;96.70
57234;BME280;43090;52.604;13.318;2022-10-19T05:57:39;102090.72;;;10.54;96.39
57234;BME280;43090;52.604;13.318;2022-10-19T06:00:28;102130.97;;;10.89;94.12
57234;BME280;43090;52.604;13.318;2022-10-19T06:03:07;102094.31;;;10.72;91.68
57234;BME280;43090;52.604;13.318;2022-10-19T06:17:37;102084.13;;;10.44;95.33
57234;BME280;43090;52.604;13.318;2022-10-19T06:20:13;102139.41;;;10.81;94.73
57234;BME280;43090;52.604;13.318;2022-10-19T06:22:48;102103.88;;;10.41;96.12
57234;BME280;43090;52.604;13.318;2022-10-19T06:25:28;102105.84;;;10.55;94.99
57234;BME280;43090;52.604;13.318;2022-10-19T06:28:02;102092.31;;;10.58;94.06
57234;BME280;43090;52.604;13.318;2022-10-19T06:34:34;102102.72;;;10.64;95.80
57234;BME280;43090;52.604;13.318;2022-10-19T06:37:38;102096.72;;;10.59;95.97
57234;BME280;43090;52.604;13.318;2022-10-19T06:48:56;102097.72;;;10.76;93.71
57234;BME280;43090;52.604;13.318;2022-10-19T06:52:15;102110.13;;;10.77;95.33
57234;BME280;43090;52.604;13.318;2022-10-19T06:59:31;102109.38;;;10.75;95.36
57234;BME280;43090;52.604;13.318;2022-10-19T07:22:28;102151.47;;;11.25;92.01
57234;BME280;43090;52.604;13.318;2022-10-19T07:25:24;102127.66;;;11.02;92.75
57234;BME280;43090;52.604;13.318;2022-10-19T07:32:50;102199.66;;;11.09;95.20
57234;BME280;43090;52.604;13.318;2022-10-19T07:54:42;102154.31;;;11.40;88.90
57234;BME280;43090;52.604;13.318;2022-10-19T21:28:55;102259.28;;;6.59;95.27
57234;BME280;43090;52.604;13.318;2022-10-19T21:43:47;102208.69;;;6.30;94.41
57234;BME280;43090;52.604;13.318;2022-10-19T21:46:33;102207.00;;;5.95;95.64
57234;BME280;43090;52.604;13.318;2022-10-19T22:02:01;102234.50;;;5.94;97.85
57234;BME280;43090;52.604;13.318;2022-10-19T22:05:00;102216.69;;;5.97;96.16
57234;BME280;43090;52.604;13.318;2022-10-19T22:08:22;102206.03;;;5.66;95.94
57234;BME280;43090;52.604;13.318;2022-10-19T22:11:59;102211.28;;;6.02;96.93
57234;BME280;43090;52.604;13.318;2022-10-19T22:15:07;102181.78;;;5.78;96.05
57234;BME280;43090;52.604;13.318;2022-10-19T22:17:45;102203.13;;;6.08;96.55
57234;BME280;43090;52.604;13.318;2022-10-19T22:20:19;102171.59;;;5.94;95.90
57234;BME280;43090;52.604;13.318;2022-10-19T22:22:49;102206.19;;;6.24;95.51
57234;BME280;43090;52.604;13.318;2022-10-19T22:25:33;102189.34;;;5.92;95.02
57234;BME280;43090;52.604;13.318;2022-10-19T22:28:09;102176.16;;;5.89;93.57
57234;BME280;43090;52.604;13.318;2022-10-19T22:30:36;102170.84;;;5.89;95.85
57234;BME280;43090;52.604;13.318;2022-10-19T22:33:03;102198.31;;;6.21;95.22
57234;BME280;43090;52.604;13.318;2022-10-19T22:35:39;102213.47;;;5.86;96.56
57234;BME280;43090;52.604;13.318;2022-10-19T22:38:33;102168.25;;;5.55;96.29
57234;BME280;43090;52.604;13.318;2022-10-19T23:13:10;102153.94;;;5.60;98.68
57234;BME280;43090;52.604;13.318;2022-10-19T23:15:56;102173.47;;;5.91;98.10
57234;BME280;43090;52.604;13.318;2022-10-19T23:18:38;102190.94;;;6.31;97.93
57234;BME280;43090;52.604;13.318;2022-10-19T23:29:29;102151.13;;;5.66;97.88
57234;BME280;43090;52.604;13.318;2022-10-19T23:39:57;102162.19;;;5.82;96.02
